createdAt,value
2019-05-01T00:00:57.688Z,54.30
2019-05-01T00:03:39.938Z,60.70
2019-05-01T00:06:10.054Z,57.17
2019-05-01T00:08:39.572Z,57.97
2019-05-01T00:11:08.385Z,62.87
2019-05-01T00:13:36.846Z,58.70
2019-05-01T00:16:05.368Z,52.13
2019-05-01T00:18:33.952Z,53.97
2019-05-01T00:21:02.408Z,53.47
2019-05-01T00:23:31.110Z,53.27
2019-05-01T00:25:59.576Z,59.40
2019-05-01T00:28:28.029Z,56.13
2019-05-01T00:30:56.486Z,57.37
2019-05-01T00:33:24.934Z,64.10
2019-05-01T00:35:53.398Z,57.07
2019-05-01T00:38:21.859Z,65.93
2019-05-01T00:40:50.307Z,56.23
2019-05-01T00:43:18.767Z,58.20
2019-05-01T00:45:47.231Z,60.53
2019-05-01T00:48:15.678Z,57.00
2019-05-01T00:50:44.134Z,63.23
2019-05-01T00:53:12.575Z,47.30
2019-05-01T00:55:57.887Z,55.40
2019-05-01T00:58:27.970Z,45.47
2019-05-01T01:00:58.046Z,47.80
2019-05-01T01:03:26.504Z,43.87
2019-05-01T01:05:54.970Z,47.70
2019-05-01T01:08:23.473Z,45.53
2019-05-01T01:10:52.029Z,51.47
2019-05-01T01:13:20.462Z,55.27
2019-05-01T01:15:48.907Z,55.53
2019-05-01T01:18:17.339Z,51.30
2019-05-01T01:20:45.802Z,61.87
2019-05-01T01:23:14.248Z,51.77
2019-05-01T01:25:42.714Z,60.80
2019-05-01T01:28:11.225Z,60.97
2019-05-01T01:30:39.680Z,61.23
2019-05-01T01:33:08.115Z,57.97
2019-05-01T01:35:36.566Z,48.93
2019-05-01T01:38:05.031Z,56.53
2019-05-01T01:40:34.129Z,61.33
2019-05-01T01:43:20.249Z,70.53
2019-05-01T01:45:50.495Z,56.50
2019-05-01T01:48:19.079Z,58.53
2019-05-01T01:50:48.272Z,57.87
2019-05-01T01:53:18.658Z,68.87
2019-05-01T01:55:47.638Z,62.07
2019-05-01T01:58:18.139Z,59.50
2019-05-01T02:00:48.295Z,55.33
2019-05-01T02:03:17.113Z,62.73
2019-05-01T02:05:45.594Z,60.83
2019-05-01T02:08:14.280Z,65.87
2019-05-01T02:10:43.454Z,70.67
2019-05-01T02:13:12.194Z,70.33
2019-05-01T02:15:40.640Z,67.03
2019-05-01T02:18:09.090Z,59.27
2019-05-01T02:20:37.533Z,56.67
2019-05-01T02:23:05.991Z,61.90
2019-05-01T02:25:36.642Z,67.57
2019-05-01T02:28:25.086Z,61.10
2019-05-01T02:31:27.360Z,58.50
2019-05-01T02:33:44.649Z,63.20
2019-05-01T02:36:15.357Z,57.93
2019-05-01T02:38:46.289Z,67.23
2019-05-01T02:41:16.678Z,58.60
2019-05-01T02:43:48.193Z,67.67
2019-05-01T02:46:18.995Z,69.23
2019-05-01T02:48:53.308Z,73.23
2019-05-01T02:51:22.595Z,62.77
2019-05-01T02:53:51.372Z,74.87
2019-05-01T02:56:25.590Z,76.43
2019-05-01T02:58:57.230Z,69.53
2019-05-01T03:01:27.132Z,75.77
2019-05-01T03:03:57.996Z,72.60
2019-05-01T03:06:29.080Z,71.77
2019-05-01T03:08:57.772Z,72.77
2019-05-01T03:11:27.009Z,76.03
2019-05-01T03:13:57.886Z,68.40
2019-05-01T03:16:26.620Z,65.63
2019-05-01T03:18:59.619Z,67.70
2019-05-01T03:21:30.072Z,66.03
2019-05-01T03:24:00.503Z,67.20
2019-05-01T03:26:29.488Z,66.77
2019-05-01T03:28:58.266Z,62.83
2019-05-01T03:31:26.779Z,70.37
2019-05-01T03:33:55.244Z,62.87
2019-05-01T03:36:23.756Z,66.53
2019-05-01T03:38:52.198Z,77.33
2019-05-01T03:41:20.918Z,67.47
2019-05-01T03:43:50.235Z,90.43
2019-05-01T03:46:18.813Z,72.57
2019-05-01T03:48:47.263Z,69.17
2019-05-01T03:51:15.843Z,61.17
2019-05-01T03:53:44.304Z,68.57
2019-05-01T03:56:12.922Z,66.70
2019-05-01T03:58:41.710Z,69.40
2019-05-01T04:01:11.958Z,74.50
2019-05-01T04:03:45.071Z,77.97
2019-05-01T04:06:13.787Z,83.90
2019-05-01T04:08:42.376Z,74.10
2019-05-01T04:11:10.985Z,71.07
2019-05-01T04:13:40.246Z,71.70
2019-05-01T04:16:09.058Z,72.00
2019-05-01T04:18:38.715Z,86.47
2019-05-01T04:21:08.945Z,80.93
2019-05-01T04:23:38.335Z,83.07
2019-05-01T04:26:07.900Z,80.70
2019-05-01T04:28:53.433Z,115.03
2019-05-01T04:31:38.630Z,101.97
2019-05-01T04:34:08.943Z,112.10
2019-05-01T04:36:51.158Z,123.83
2019-05-01T04:39:19.788Z,111.00
2019-05-01T04:41:48.470Z,150.17
2019-05-01T04:44:17.394Z,150.43
2019-05-01T04:46:46.193Z,137.33
2019-05-01T04:49:17.933Z,148.90
2019-05-01T04:51:45.592Z,147.17
2019-05-01T04:54:14.387Z,184.40
2019-05-01T04:56:43.203Z,182.47
2019-05-01T04:59:11.831Z,155.03
2019-05-01T05:01:58.875Z,160.67
2019-05-01T05:04:29.172Z,205.03
2019-05-01T05:06:57.660Z,187.10
2019-05-01T05:09:42.835Z,163.77
2019-05-01T05:12:13.045Z,174.17
2019-05-01T05:14:49.017Z,194.03
2019-05-01T05:17:19.475Z,169.03
2019-05-01T05:19:48.094Z,170.43
2019-05-01T05:22:16.774Z,160.03
2019-05-01T05:24:45.578Z,138.67
2019-05-01T05:27:14.098Z,167.23
2019-05-01T05:29:44.982Z,161.53
2019-05-01T05:32:15.545Z,156.17
2019-05-01T05:34:45.223Z,152.93
2019-05-01T05:37:17.650Z,141.53
2019-05-01T05:39:48.009Z,145.10
2019-05-01T05:42:16.722Z,143.97
2019-05-01T05:44:46.734Z,135.93
2019-05-01T05:47:15.210Z,138.17
2019-05-01T05:49:43.728Z,122.00
2019-05-01T05:52:18.084Z,117.63
2019-05-01T05:54:52.759Z,101.00
2019-05-01T05:57:31.567Z,100.37
2019-05-01T06:00:19.975Z,83.20
2019-05-01T06:02:57.686Z,80.57
2019-05-01T06:05:31.057Z,77.53
2019-05-01T06:08:19.697Z,77.07
2019-05-01T06:10:53.576Z,75.37
2019-05-01T06:13:25.899Z,87.00
2019-05-01T06:15:56.097Z,77.20
2019-05-01T06:18:26.263Z,87.80
2019-05-01T06:21:03.845Z,86.27
2019-05-01T06:23:38.737Z,117.83
2019-05-01T06:26:24.982Z,107.17
2019-05-01T06:28:56.087Z,88.60
2019-05-01T06:31:24.662Z,78.73
2019-05-01T06:33:54.950Z,80.20
2019-05-01T06:36:24.129Z,82.10
2019-05-01T06:38:53.307Z,85.77
2019-05-01T06:41:21.979Z,87.20
2019-05-01T06:43:57.013Z,88.10
2019-05-01T06:46:35.542Z,73.33
2019-05-01T06:49:17.775Z,69.17
2019-05-01T06:52:00.206Z,61.83
2019-05-01T06:54:30.638Z,70.50
2019-05-01T06:57:00.639Z,53.43
2019-05-01T06:59:31.557Z,51.90
2019-05-01T07:02:01.142Z,46.20
2019-05-01T07:04:32.320Z,45.90
2019-05-01T07:07:06.682Z,44.03
2019-05-01T07:09:34.189Z,42.10
2019-05-01T07:12:05.980Z,44.60
2019-05-01T07:14:34.984Z,44.10
2019-05-01T07:17:03.607Z,45.33
2019-05-01T07:19:50.032Z,42.30
2019-05-01T07:22:18.671Z,39.30
2019-05-01T07:24:50.092Z,37.67
2019-05-01T07:27:18.717Z,45.60
2019-05-01T07:29:50.430Z,41.13
2019-05-01T07:32:19.078Z,40.30
2019-05-01T07:34:48.990Z,34.43
2019-05-01T07:37:20.867Z,50.63
2019-05-01T07:39:50.032Z,42.70
2019-05-01T07:42:20.418Z,36.30
2019-05-01T07:45:08.243Z,37.73
2019-05-01T07:47:38.685Z,44.33
2019-05-01T07:50:12.174Z,42.37
2019-05-01T07:52:41.494Z,41.47
2019-05-01T07:55:13.032Z,42.77
2019-05-01T07:57:41.506Z,39.57
2019-05-01T08:00:12.550Z,41.17
2019-05-01T08:02:40.994Z,36.33
2019-05-01T08:05:11.602Z,46.83
2019-05-01T08:07:39.718Z,40.73
2019-05-01T08:10:08.348Z,35.90
2019-05-01T08:12:36.798Z,53.80
2019-05-01T08:15:06.087Z,37.43
2019-05-01T08:17:36.237Z,34.77
2019-05-01T08:20:10.033Z,39.20
2019-05-01T08:22:39.055Z,33.33
2019-05-01T08:25:07.963Z,36.20
2019-05-01T08:27:44.030Z,27.73
2019-05-01T08:30:18.564Z,31.93
2019-05-01T08:32:48.809Z,32.80
2019-05-01T08:35:18.922Z,32.60
2019-05-01T08:37:47.402Z,32.60
2019-05-01T08:40:20.394Z,28.37
2019-05-01T08:42:46.186Z,26.70
2019-05-01T08:45:31.312Z,26.60
2019-05-01T08:48:10.598Z,31.07
2019-05-01T08:50:39.035Z,32.90
2019-05-01T08:53:07.647Z,30.50
2019-05-01T08:55:39.767Z,25.30
2019-05-01T08:58:08.843Z,25.73
2019-05-01T09:00:40.869Z,27.60
2019-05-01T09:03:08.605Z,26.83
2019-05-01T09:05:36.863Z,30.87
2019-05-01T09:08:05.302Z,26.57
2019-05-01T09:10:33.830Z,31.00
2019-05-01T09:13:02.334Z,27.50
2019-05-01T09:15:30.858Z,31.33
2019-05-01T09:17:59.318Z,28.90
2019-05-01T09:20:28.150Z,31.80
2019-05-01T09:22:56.666Z,33.80
2019-05-01T09:25:30.988Z,28.80
2019-05-01T09:28:07.598Z,35.20
2019-05-01T09:30:37.772Z,34.37
2019-05-01T09:33:06.287Z,31.30
2019-05-01T09:35:34.747Z,30.73
2019-05-01T09:38:03.192Z,28.83
2019-05-01T09:40:31.778Z,35.83
2019-05-01T09:43:01.209Z,37.37
2019-05-01T09:45:29.741Z,34.50
2019-05-01T09:47:58.266Z,32.67
2019-05-01T09:50:30.431Z,25.30
2019-05-01T09:52:59.846Z,36.17
2019-05-01T09:55:36.524Z,32.73
2019-05-01T09:58:05.060Z,35.33
2019-05-01T10:00:33.868Z,33.67
2019-05-01T10:03:02.314Z,36.57
2019-05-01T10:05:31.190Z,35.83
2019-05-01T10:08:00.052Z,33.40
2019-05-01T10:10:30.630Z,31.73
2019-05-01T10:12:59.420Z,32.13
2019-05-01T10:15:27.941Z,31.50
2019-05-01T10:17:56.392Z,31.50
2019-05-01T10:20:24.852Z,33.23
2019-05-01T10:22:53.372Z,31.40
2019-05-01T10:25:21.842Z,32.40
2019-05-01T10:28:12.727Z,35.00
2019-05-01T10:30:53.125Z,32.50
2019-05-01T10:33:23.243Z,31.00
2019-05-01T10:36:18.327Z,29.77
2019-05-01T10:38:44.785Z,29.03
2019-05-01T10:41:10.659Z,41.80
2019-05-01T10:43:39.142Z,31.97
2019-05-01T10:46:07.631Z,35.20
2019-05-01T10:48:36.131Z,33.90
2019-05-01T10:51:04.616Z,29.87
2019-05-01T10:53:33.066Z,33.57
2019-05-01T10:56:01.539Z,27.50
2019-05-01T10:58:30.049Z,35.13
2019-05-01T11:01:02.915Z,33.40
2019-05-01T11:03:31.374Z,30.40
2019-05-01T11:05:59.835Z,31.60
2019-05-01T11:08:28.292Z,30.40
2019-05-01T11:10:56.770Z,33.90
2019-05-01T11:13:25.234Z,35.80
2019-05-01T11:15:53.693Z,31.40
2019-05-01T11:18:22.148Z,29.20
2019-05-01T11:20:50.683Z,34.30
2019-05-01T11:23:19.134Z,34.10
2019-05-01T11:25:47.594Z,30.70
2019-05-01T11:28:16.144Z,76.90
2019-05-01T11:30:44.684Z,32.07
2019-05-01T11:33:17.472Z,32.37
2019-05-01T11:36:08.909Z,30.53
2019-05-01T11:38:43.224Z,30.77
2019-05-01T11:41:16.081Z,30.47
2019-05-01T11:43:44.558Z,29.47
2019-05-01T11:46:13.025Z,36.93
2019-05-01T11:48:44.253Z,27.30
2019-05-01T11:51:11.673Z,30.37
2019-05-01T11:53:40.159Z,28.67
2019-05-01T11:56:08.607Z,28.17
2019-05-01T11:58:37.054Z,29.07
2019-05-01T12:01:06.176Z,35.30
2019-05-01T12:03:34.660Z,27.80
2019-05-01T12:06:03.179Z,30.73
2019-05-01T12:08:31.696Z,25.30
2019-05-01T12:11:01.131Z,29.73
2019-05-01T12:13:33.332Z,29.00
2019-05-01T12:16:01.374Z,27.20
2019-05-01T12:18:29.844Z,27.33
2019-05-01T12:20:58.290Z,28.73
2019-05-01T12:23:26.734Z,27.57
2019-05-01T12:25:55.206Z,33.47
2019-05-01T12:28:23.700Z,32.60
2019-05-01T12:30:52.161Z,28.53
2019-05-01T12:33:20.607Z,34.23
2019-05-01T12:35:50.720Z,33.83
2019-05-01T12:38:19.162Z,28.57
2019-05-01T12:40:49.260Z,28.70
2019-05-01T12:43:17.724Z,31.17
2019-05-01T12:45:47.817Z,38.97
2019-05-01T12:48:16.265Z,45.83
2019-05-01T12:50:46.353Z,40.37
2019-05-01T12:53:16.687Z,38.03
2019-05-01T12:55:55.455Z,39.40
2019-05-01T12:58:23.899Z,41.63
2019-05-01T13:00:54.004Z,41.60
2019-05-01T13:03:22.475Z,36.73
2019-05-01T13:05:50.946Z,42.53
2019-05-01T13:08:19.524Z,45.83
2019-05-01T13:10:49.599Z,45.20
2019-05-01T13:13:18.299Z,48.57
2019-05-01T13:15:46.764Z,40.50
2019-05-01T13:18:15.373Z,43.43
2019-05-01T13:20:43.821Z,42.27
2019-05-01T13:23:12.296Z,48.43
2019-05-01T13:25:40.821Z,45.47
2019-05-01T13:28:28.366Z,43.07
2019-05-01T13:31:14.756Z,45.27
2019-05-01T13:33:43.226Z,43.37
2019-05-01T13:36:11.678Z,47.93
2019-05-01T13:38:40.145Z,52.17
2019-05-01T13:41:08.591Z,43.50
2019-05-01T13:43:37.058Z,60.07
2019-05-01T13:46:05.512Z,48.17
2019-05-01T13:48:33.964Z,43.80
2019-05-01T13:51:02.467Z,49.03
2019-05-01T13:53:30.956Z,44.40
2019-05-01T13:55:59.478Z,46.23
2019-05-01T13:58:27.943Z,44.23
2019-05-01T14:00:56.683Z,47.03
2019-05-01T14:03:25.635Z,42.90
2019-05-01T14:05:54.097Z,48.13
2019-05-01T14:08:22.675Z,40.10
2019-05-01T14:10:51.108Z,40.20
2019-05-01T14:13:19.601Z,44.63
2019-05-01T14:15:48.066Z,46.47
2019-05-01T14:18:16.506Z,39.53
2019-05-01T14:20:55.673Z,41.77
2019-05-01T14:23:28.582Z,46.50
2019-05-01T14:26:01.142Z,47.83
2019-05-01T14:28:29.595Z,45.63
2019-05-01T14:30:58.074Z,45.00
2019-05-01T14:33:26.514Z,44.13
2019-05-01T14:35:54.965Z,46.60
2019-05-01T14:38:23.423Z,42.33
2019-05-01T14:40:51.961Z,39.10
2019-05-01T14:43:20.407Z,41.03
2019-05-01T14:45:48.925Z,47.40
2019-05-01T14:48:17.378Z,44.47
2019-05-01T14:50:46.079Z,46.60
2019-05-01T14:53:14.618Z,39.83
2019-05-01T14:55:43.058Z,45.10
2019-05-01T14:58:11.571Z,39.90
2019-05-01T15:00:40.087Z,40.30
2019-05-01T15:03:08.630Z,40.70
2019-05-01T15:05:37.217Z,41.10
2019-05-01T15:08:05.830Z,34.60
2019-05-01T15:10:34.301Z,37.03
2019-05-01T15:13:10.173Z,41.33
2019-05-01T15:15:40.269Z,38.10
2019-05-01T15:18:19.047Z,40.57
2019-05-01T15:20:47.549Z,39.13
2019-05-01T15:23:16.060Z,38.00
2019-05-01T15:25:44.519Z,39.97
2019-05-01T15:28:13.001Z,39.70
2019-05-01T15:30:41.470Z,50.87
2019-05-01T15:33:10.029Z,44.40
2019-05-01T15:35:38.567Z,41.70
2019-05-01T15:38:07.098Z,41.37
2019-05-01T15:40:37.202Z,39.20
2019-05-01T15:43:25.565Z,36.70
2019-05-01T15:45:54.025Z,40.57
2019-05-01T15:48:22.463Z,50.70
2019-05-01T15:50:50.915Z,42.80
2019-05-01T15:53:19.430Z,50.33
2019-05-01T15:55:47.921Z,42.30
2019-05-01T15:58:16.502Z,39.83
2019-05-01T16:00:45.022Z,49.20
2019-05-01T16:03:13.486Z,51.23
2019-05-01T16:05:41.926Z,41.23
2019-05-01T16:08:10.398Z,40.13
2019-05-01T16:10:46.570Z,46.43
2019-05-01T16:13:15.026Z,50.90
2019-05-01T16:15:43.474Z,58.27
2019-05-01T16:18:11.944Z,49.07
2019-05-01T16:20:40.414Z,47.87
2019-05-01T16:23:08.869Z,60.53
2019-05-01T16:25:37.316Z,47.47
2019-05-01T16:28:05.785Z,52.90
2019-05-01T16:30:34.324Z,47.30
2019-05-01T16:33:02.782Z,48.37
2019-05-01T16:35:31.286Z,46.63
2019-05-01T16:38:01.016Z,53.53
2019-05-01T16:40:37.054Z,50.33
2019-05-01T16:43:08.026Z,50.30
2019-05-01T16:45:36.496Z,53.60
2019-05-01T16:48:05.356Z,56.30
2019-05-01T16:50:33.808Z,51.87
2019-05-01T16:53:02.307Z,48.67
2019-05-01T16:55:30.753Z,54.43
2019-05-01T16:57:59.492Z,52.03
2019-05-01T17:00:48.876Z,46.97
2019-05-01T17:03:19.008Z,50.23
2019-05-01T17:05:53.015Z,43.63
2019-05-01T17:08:39.215Z,53.33
2019-05-01T17:11:09.318Z,50.43
2019-05-01T17:13:38.038Z,54.83
2019-05-01T17:16:06.506Z,57.73
2019-05-01T17:18:34.979Z,45.70
2019-05-01T17:21:03.440Z,51.70
2019-05-01T17:23:31.952Z,52.83
2019-05-01T17:26:00.441Z,46.30
2019-05-01T17:28:28.903Z,53.70
2019-05-01T17:30:59.000Z,57.57
2019-05-01T17:33:27.485Z,55.43
2019-05-01T17:35:56.009Z,54.70
2019-05-01T17:38:24.464Z,50.67
2019-05-01T17:40:53.613Z,59.60
2019-05-01T17:43:22.211Z,52.10
2019-05-01T17:45:50.673Z,59.37
2019-05-01T17:48:19.146Z,58.00
2019-05-01T17:50:47.597Z,62.27
2019-05-01T17:53:16.065Z,56.80
2019-05-01T17:55:44.541Z,69.77
2019-05-01T17:58:13.223Z,60.10
2019-05-01T18:00:51.955Z,58.43
2019-05-01T18:03:22.042Z,58.53
2019-05-01T18:06:10.310Z,58.00
2019-05-01T18:08:38.755Z,57.53
2019-05-01T18:11:09.263Z,68.17
2019-05-01T18:13:37.411Z,61.33
2019-05-01T18:16:05.948Z,54.23
2019-05-01T18:18:34.408Z,58.10
2019-05-01T18:21:03.011Z,56.90
2019-05-01T18:23:49.558Z,58.63
2019-05-01T18:26:25.753Z,62.80
2019-05-01T18:29:11.632Z,66.47
2019-05-01T18:31:40.182Z,66.27
2019-05-01T18:34:08.629Z,63.50
2019-05-01T18:36:38.805Z,69.27
2019-05-01T18:39:16.744Z,70.23
2019-05-01T18:41:47.506Z,64.40
2019-05-01T18:44:15.950Z,61.43
2019-05-01T18:46:44.425Z,70.70
2019-05-01T18:49:12.890Z,73.90
2019-05-01T18:51:42.002Z,69.53
2019-05-01T18:54:10.570Z,120.93
2019-05-01T18:56:39.570Z,70.47
2019-05-01T18:59:08.166Z,79.67
2019-05-01T19:01:36.610Z,65.67
2019-05-01T19:04:05.203Z,74.17
2019-05-01T19:06:41.014Z,68.97
2019-05-01T19:09:14.598Z,69.03
2019-05-01T19:11:37.379Z,71.70
2019-05-01T19:14:05.943Z,78.50
2019-05-01T19:16:34.405Z,78.67
2019-05-01T19:19:04.106Z,73.87
2019-05-01T19:21:33.875Z,79.63
2019-05-01T19:24:02.791Z,76.60
2019-05-01T19:26:32.622Z,77.30
2019-05-01T19:29:01.162Z,69.53
2019-05-01T19:31:29.665Z,71.97
2019-05-01T19:33:58.120Z,71.73
2019-05-01T19:36:26.597Z,81.27
2019-05-01T19:38:55.123Z,72.33
2019-05-01T19:41:23.758Z,70.47
2019-05-01T19:43:52.207Z,85.87
2019-05-01T19:46:20.646Z,80.17
2019-05-01T19:48:50.687Z,85.73
2019-05-01T19:51:23.602Z,77.77
2019-05-01T19:53:51.735Z,90.27
2019-05-01T19:56:21.413Z,82.67
2019-05-01T19:58:49.885Z,74.30
2019-05-01T20:01:18.331Z,80.00
2019-05-01T20:03:46.812Z,85.50
2019-05-01T20:06:15.359Z,87.10
2019-05-01T20:08:43.885Z,92.23
2019-05-01T20:11:12.502Z,95.60
2019-05-01T20:13:40.936Z,85.60
2019-05-01T20:16:10.262Z,94.30
2019-05-01T20:18:38.704Z,90.23
2019-05-01T20:21:07.170Z,97.53
2019-05-01T20:23:35.618Z,89.53
2019-05-01T20:26:04.154Z,99.57
2019-05-01T20:28:32.642Z,98.40
2019-05-01T20:31:01.226Z,88.93
2019-05-01T20:33:33.202Z,178.63
2019-05-01T20:36:04.807Z,298.83
2019-05-01T20:38:30.322Z,108.10
2019-05-01T20:40:58.766Z,98.40
2019-05-01T20:43:27.268Z,135.17
2019-05-01T20:45:55.729Z,126.07
2019-05-01T20:48:25.174Z,136.53
2019-05-01T20:50:53.782Z,101.90
2019-05-01T20:53:22.294Z,101.67
2019-05-01T20:55:52.394Z,111.97
2019-05-01T20:58:21.722Z,116.17
2019-05-01T21:00:53.554Z,111.63
2019-05-01T21:03:22.056Z,89.17
2019-05-01T21:05:52.151Z,104.97
2019-05-01T21:08:22.276Z,102.13
2019-05-01T21:10:52.377Z,93.37
2019-05-01T21:13:23.053Z,105.20
2019-05-01T21:15:51.270Z,140.17
2019-05-01T21:18:20.903Z,111.27
2019-05-01T21:20:49.931Z,102.70
2019-05-01T21:23:18.391Z,97.40
2019-05-01T21:25:46.850Z,99.13
2019-05-01T21:28:15.365Z,96.13
2019-05-01T21:30:47.362Z,109.90
2019-05-01T21:33:14.075Z,94.53
2019-05-01T21:35:44.360Z,96.50
2019-05-01T21:38:12.742Z,101.50
2019-05-01T21:40:43.530Z,101.47
2019-05-01T21:43:13.443Z,106.40
2019-05-01T21:45:43.213Z,100.53
2019-05-01T21:48:13.375Z,106.70
2019-05-01T21:50:43.897Z,108.17
2019-05-01T21:53:12.854Z,112.37
2019-05-01T21:55:41.419Z,106.03
2019-05-01T21:58:09.907Z,108.73
2019-05-01T22:00:40.392Z,106.23
2019-05-01T22:03:08.943Z,115.60
2019-05-01T22:05:39.691Z,110.97
2019-05-01T22:08:08.235Z,119.10
2019-05-01T22:10:36.762Z,124.10
2019-05-01T22:13:05.223Z,119.70
2019-05-01T22:15:35.318Z,132.37
2019-05-01T22:18:11.478Z,122.37
2019-05-01T22:20:42.152Z,125.20
2019-05-01T22:23:21.902Z,120.40
2019-05-01T22:25:51.860Z,124.53
2019-05-01T22:28:21.938Z,126.10
2019-05-01T22:30:52.101Z,127.83
2019-05-01T22:33:21.441Z,127.23
2019-05-01T22:35:51.635Z,124.63
2019-05-01T22:38:20.087Z,112.97
2019-05-01T22:40:50.169Z,126.13
2019-05-01T22:43:18.613Z,131.90
2019-05-01T22:45:47.510Z,130.17
2019-05-01T22:48:15.955Z,127.83
2019-05-01T22:50:46.893Z,125.67
2019-05-01T22:53:15.341Z,129.00
2019-05-01T22:55:43.795Z,131.30
2019-05-01T22:58:12.335Z,134.70
2019-05-01T23:00:45.366Z,127.97
2019-05-01T23:03:31.811Z,136.30
2019-05-01T23:06:01.946Z,124.83
2019-05-01T23:08:30.569Z,138.43
2019-05-01T23:10:59.154Z,140.30
2019-05-01T23:13:27.612Z,135.23
2019-05-01T23:15:57.966Z,141.97
2019-05-01T23:18:26.320Z,144.33
2019-05-01T23:20:54.762Z,152.47
2019-05-01T23:23:23.290Z,162.53
2019-05-01T23:25:51.737Z,145.00
2019-05-01T23:28:20.175Z,141.50
2019-05-01T23:30:49.078Z,154.57
2019-05-01T23:33:17.545Z,158.73
2019-05-01T23:35:45.990Z,146.03
2019-05-01T23:38:14.449Z,146.77
2019-05-01T23:40:46.059Z,149.03
2019-05-01T23:43:13.130Z,156.63
2019-05-01T23:45:41.602Z,166.83
2019-05-01T23:48:10.046Z,162.00
2019-05-01T23:50:38.498Z,163.40
2019-05-01T23:53:09.073Z,154.83
2019-05-01T23:55:37.118Z,153.83
2019-05-01T23:58:05.568Z,163.07
